• Join FlightAware (Why Join?)
  • Login
  • US Flag 
02:28AM EDT


 

Airport Tracker/Info


-or-


 

Live Flight TrackerFlight Track Log ✈ N449ND ✈ 18-Mar-2014 ✈ KFPR - KPBI

Flight Track Log - Related Links

Times and Time Zones

All times are in EDT time to prevent confusion due to time zone crossing. See the N449ND flight status page for this flight to view local times or setup timezone preferences in your user account.

Time Position Orientation Groundspeed Altitude Reporting Facility
EDT Latitude Longitude Course Direction KTS MPH feet Rate Location/Type
08:48PM 27.4975 -80.3594 163° South 96 110 300  Level Miami Center
08:49PM 27.4847 -80.3442 133° Southeast 89 102 800 540 Climbing Miami Center
08:50PM 27.4561 -80.3497 190° South 97 112 1,400 480 Climbing Miami Center
08:51PM 27.4292 -80.3511 183° South 96 110 1,900 420 Climbing Miami Center
08:52PM 27.3315 -80.3158 163° South  Level Estimated
08:52PM 27.4058 -80.3533 185° South 92 106 2,300  Level Miami Center
08:53PM 27.3038 -80.3064 163° South  Level Estimated
08:53PM 27.3858 -80.3639 205° Southwest 89 102 2,800  Level Miami Center
08:54PM 27.3742 -80.3878 241° Southwest 85 98 3,200 420 Climbing Miami Center
08:55PM 27.3561 -80.3944 198° South 85 98 3,700 360 Climbing Miami Center
08:56PM 27.3314 -80.3867 164° South 88 101 4,000 180 Climbing Miami Center
08:57PM 27.3022 -80.3778 165° South 102 117 4,100  Climbing Miami Center
08:58PM 27.2742 -80.3714 169° South 104 120 4,100  Level Miami Center
08:59PM 27.2453 -80.3650 169° South 104 120 4,100  Level Miami Center
09:00PM 27.2161 -80.3583 169° South 103 119 4,100  Level Miami Center
09:01PM 27.1897 -80.3528 169° South 103 119 4,100 -60 Level Miami Center
09:02PM 27.1608 -80.3456 167° South 102 117 4,000  Descending Miami Center
09:03PM 27.1319 -80.3372 166° South 101 116 4,100  Climbing Miami Center
09:04PM 27.1036 -80.3300 167° South 101 116 4,100  Level Miami Center
09:05PM 27.0775 -80.3242 169° South 100 115 4,100  Level Miami Center
09:06PM 27.0489 -80.3169 167° South 100 115 4,100  Level Miami Center
09:07PM 27.0186 -80.3119 172° South 102 117 4,100  Level Miami Center
09:08PM 26.9919 -80.3069 171° South 102 117 4,100  Level Miami Center
09:09PM 26.9628 -80.2981 165° South 102 117 4,100  Level Miami Center
09:10PM 26.9342 -80.2894 165° South 102 117 4,100  Level Miami Center
09:11PM 26.9069 -80.2825 167° South 102 117 4,100 -60 Level Miami Center
09:12PM 26.8778 -80.2797 175° South 102 117 4,000 -60 Descending Miami Center
09:13PM 26.8483 -80.2772 176° South 101 116 4,000  Level Miami Center
09:14PM 26.8214 -80.2747 175° South 100 115 4,000 -480 Level Miami Center
09:15PM 26.7919 -80.2778 185° South 101 116 3,100 -840 Descending Miami Center
09:16PM 26.7617 -80.2831 189° South 102 117 2,300 -540 Descending Miami Center
09:17PM 26.7389 -80.2869 189° South 102 117 2,100 -120 Descending Miami Center
09:18PM 26.7100 -80.2928 190° South 103 119 2,100  Level Miami Center
09:19PM 26.6911 -80.2608 123° Southeast 109 125 2,100  Level Miami Center
09:20PM 26.6894 -80.2275 93° East 109 125 2,100 -300 Level Miami Center
09:21PM 26.6864 -80.1964 96° East 104 120 1,500 -420 Descending Miami Center
09:22PM 26.6844 -80.1647 94° East 102 117 1,300 1,200 Descending Miami Center
09:23PM 26.6847 -80.1369 89° East 98 113 4,000 2,640 Climbing Miami Center
09:25PM 26.6723 -80.0999 111° Southeast  Level FlightAware Approximate
09:32PM 26.6667 -80.0833 101° East  Level FlightAware Approximate